sensor_id;sensor_type;location;lat;lon;timestamp;temperature;humidity
3528;DHT22;1778;47.966;7.854;2022-07-04T00:00:27;20.90;99.90
3528;DHT22;1778;47.966;7.854;2022-07-04T00:01:28;20.80;99.90
3528;DHT22;1778;47.966;7.854;2022-07-04T00:02:31;20.90;99.90
3528;DHT22;1778;47.966;7.854;2022-07-04T00:03:33;20.90;99.90
3528;DHT22;1778;47.966;7.854;2022-07-04T00:04:34;20.90;99.90
3528;DHT22;1778;47.966;7.854;2022-07-04T00:05:36;21.00;99.90
3528;DHT22;1778;47.966;7.854;2022-07-04T00:06:38;20.90;99.90
3528;DHT22;1778;47.966;7.854;2022-07-04T00:07:41;20.80;99.90
3528;DHT22;1778;47.966;7.854;2022-07-04T00:08:43;20.90;99.90
3528;DHT22;1778;47.966;7.854;2022-07-04T00:09:44;20.90;99.90
3528;DHT22;1778;47.966;7.854;2022-07-04T00:10:46;20.80;99.90
3528;DHT22;1778;47.966;7.854;2022-07-04T00:11:48;20.80;99.90
3528;DHT22;1778;47.966;7.854;2022-07-04T00:12:50;20.80;99.90
3528;DHT22;1778;47.966;7.854;2022-07-04T00:13:52;20.80;99.90
3528;DHT22;1778;47.966;7.854;2022-07-04T00:14:53;20.70;99.90
3528;DHT22;1778;47.966;7.854;2022-07-04T00:15:55;20.80;99.90
3528;DHT22;1778;47.966;7.854;2022-07-04T00:16:57;20.80;99.90
3528;DHT22;1778;47.966;7.854;2022-07-04T00:17:58;20.80;99.90
3528;DHT22;1778;47.966;7.854;2022-07-04T00:19:01;20.80;99.90
3528;DHT22;1778;47.966;7.854;2022-07-04T00:20:05;20.70;99.90
3528;DHT22;1778;47.966;7.854;2022-07-04T00:21:07;20.80;99.90
3528;DHT22;1778;47.966;7.854;2022-07-04T00:22:09;20.70;99.90
3528;DHT22;1778;47.966;7.854;2022-07-04T00:23:11;20.70;99.90
3528;DHT22;1778;47.966;7.854;2022-07-04T00:24:12;20.70;99.90
3528;DHT22;1778;47.966;7.854;2022-07-04T00:25:14;20.70;99.90
3528;DHT22;1778;47.966;7.854;2022-07-04T00:26:16;20.60;99.90
3528;DHT22;1778;47.966;7.854;2022-07-04T00:27:18;20.60;99.90
3528;DHT22;1778;47.966;7.854;2022-07-04T00:28:19;20.60;99.90
3528;DHT22;1778;47.966;7.854;2022-07-04T00:29:21;20.60;99.90
3528;DHT22;1778;47.966;7.854;2022-07-04T00:30:23;20.60;99.90
3528;DHT22;1778;47.966;7.854;2022-07-04T00:31:25;20.60;99.90
3528;DHT22;1778;47.966;7.854;2022-07-04T00:32:27;20.60;99.90
3528;DHT22;1778;47.966;7.854;2022-07-04T00:33:28;20.60;99.90
3528;DHT22;1778;47.966;7.854;2022-07-04T00:34:30;20.60;99.90
3528;DHT22;1778;47.966;7.854;2022-07-04T00:35:32;20.60;99.90
3528;DHT22;1778;47.966;7.854;2022-07-04T00:36:34;20.70;99.90
3528;DHT22;1778;47.966;7.854;2022-07-04T00:37:36;20.70;99.90
3528;DHT22;1778;47.966;7.854;2022-07-04T00:38:37;20.80;99.90
3528;DHT22;1778;47.966;7.854;2022-07-04T00:39:39;20.70;99.90
3528;DHT22;1778;47.966;7.854;2022-07-04T00:40:41;20.60;99.90
3528;DHT22;1778;47.966;7.854;2022-07-04T00:41:43;20.60;99.90
3528;DHT22;1778;47.966;7.854;2022-07-04T00:42:45;20.70;99.90
3528;DHT22;1778;47.966;7.854;2022-07-04T00:44:04;20.60;99.90
3528;DHT22;1778;47.966;7.854;2022-07-04T00:45:14;20.60;99.90
3528;DHT22;1778;47.966;7.854;2022-07-04T00:46:16;20.60;99.90
3528;DHT22;1778;47.966;7.854;2022-07-04T00:47:17;20.60;99.90
3528;DHT22;1778;47.966;7.854;2022-07-04T00:48:19;20.70;99.90
3528;DHT22;1778;47.966;7.854;2022-07-04T00:49:21;20.70;99.90
3528;DHT22;1778;47.966;7.854;2022-07-04T00:50:24;20.70;99.90
3528;DHT22;1778;47.966;7.854;2022-07-04T00:51:26;20.60;99.90
3528;DHT22;1778;47.966;7.854;2022-07-04T00:52:29;20.60;99.90
3528;DHT22;1778;47.966;7.854;2022-07-04T00:53:31;20.60;99.90
3528;DHT22;1778;47.966;7.854;2022-07-04T00:54:33;20.70;99.90
3528;DHT22;1778;47.966;7.854;2022-07-04T00:55:34;20.70;99.90
3528;DHT22;1778;47.966;7.854;2022-07-04T00:56:38;20.60;99.90
3528;DHT22;1778;47.966;7.854;2022-07-04T00:57:39;20.60;99.90
3528;DHT22;1778;47.966;7.854;2022-07-04T00:58:42;20.70;99.90
3528;DHT22;1778;47.966;7.854;2022-07-04T00:59:44;20.70;99.90
3528;DHT22;1778;47.966;7.854;2022-07-04T01:00:45;20.70;99.90
3528;DHT22;1778;47.966;7.854;2022-07-04T01:01:47;20.70;99.90
3528;DHT22;1778;47.966;7.854;2022-07-04T01:02:50;20.60;99.90
3528;DHT22;1778;47.966;7.854;2022-07-04T01:03:51;20.60;99.90
3528;DHT22;1778;47.966;7.854;2022-07-04T01:04:54;20.60;99.90
3528;DHT22;1778;47.966;7.854;2022-07-04T01:05:56;20.60;99.90
3528;DHT22;1778;47.966;7.854;2022-07-04T01:07:02;20.60;99.90
3528;DHT22;1778;47.966;7.854;2022-07-04T01:08:04;20.70;99.90
3528;DHT22;1778;47.966;7.854;2022-07-04T01:09:06;20.60;99.90
3528;DHT22;1778;47.966;7.854;2022-07-04T01:10:08;20.60;99.90
3528;DHT22;1778;47.966;7.854;2022-07-04T01:11:11;20.60;99.90
3528;DHT22;1778;47.966;7.854;2022-07-04T01:12:25;20.60;99.90
3528;DHT22;1778;47.966;7.854;2022-07-04T01:13:26;20.60;99.90
3528;DHT22;1778;47.966;7.854;2022-07-04T01:14:28;20.50;99.90
3528;DHT22;1778;47.966;7.854;2022-07-04T01:15:30;20.50;99.90
3528;DHT22;1778;47.966;7.854;2022-07-04T01:16:32;20.50;99.90
3528;DHT22;1778;47.966;7.854;2022-07-04T01:17:35;20.50;99.90
3528;DHT22;1778;47.966;7.854;2022-07-04T01:18:37;20.50;99.90
3528;DHT22;1778;47.966;7.854;2022-07-04T01:19:39;20.50;99.90
3528;DHT22;1778;47.966;7.854;2022-07-04T01:20:41;20.50;99.90
3528;DHT22;1778;47.966;7.854;2022-07-04T01:21:42;20.40;99.90
3528;DHT22;1778;47.966;7.854;2022-07-04T01:22:44;20.40;99.90
3528;DHT22;1778;47.966;7.854;2022-07-04T01:23:46;20.40;99.90
3528;DHT22;1778;47.966;7.854;2022-07-04T01:24:47;20.40;99.90
3528;DHT22;1778;47.966;7.854;2022-07-04T01:25:49;20.50;99.90
3528;DHT22;1778;47.966;7.854;2022-07-04T01:26:51;20.50;99.90
3528;DHT22;1778;47.966;7.854;2022-07-04T01:27:53;20.50;99.90
3528;DHT22;1778;47.966;7.854;2022-07-04T01:28:55;20.50;99.90
3528;DHT22;1778;47.966;7.854;2022-07-04T01:29:56;20.50;99.90
3528;DHT22;1778;47.966;7.854;2022-07-04T01:30:58;20.50;99.90
3528;DHT22;1778;47.966;7.854;2022-07-04T01:32:07;20.50;99.90
3528;DHT22;1778;47.966;7.854;2022-07-04T01:33:10;20.50;99.90
3528;DHT22;1778;47.966;7.854;2022-07-04T01:34:11;20.40;99.90
3528;DHT22;1778;47.966;7.854;2022-07-04T01:35:13;20.40;99.90
3528;DHT22;1778;47.966;7.854;2022-07-04T01:36:13;20.40;99.90
3528;DHT22;1778;47.966;7.854;2022-07-04T01:37:15;20.40;99.90
3528;DHT22;1778;47.966;7.854;2022-07-04T01:38:17;20.40;99.90
3528;DHT22;1778;47.966;7.854;2022-07-04T01:39:18;20.30;99.90
3528;DHT22;1778;47.966;7.854;2022-07-04T01:40:20;20.30;99.90
3528;DHT22;1778;47.966;7.854;2022-07-04T01:41:21;20.30;99.90
3528;DHT22;1778;47.966;7.854;2022-07-04T01:42:23;20.30;99.90
3528;DHT22;1778;47.966;7.854;2022-07-04T01:43:25;20.30;99.90
3528;DHT22;1778;47.966;7.854;2022-07-04T01:44:27;20.30;99.90
3528;DHT22;1778;47.966;7.854;2022-07-04T01:45:29;20.30;99.90
3528;DHT22;1778;47.966;7.854;2022-07-04T01:46:30;20.30;99.90
3528;DHT22;1778;47.966;7.854;2022-07-04T01:47:32;20.30;99.90
3528;DHT22;1778;47.966;7.854;2022-07-04T01:48:34;20.30;99.90
3528;DHT22;1778;47.966;7.854;2022-07-04T01:49:35;20.30;99.90
3528;DHT22;1778;47.966;7.854;2022-07-04T01:50:38;20.30;99.90
3528;DHT22;1778;47.966;7.854;2022-07-04T01:51:45;20.30;99.90
3528;DHT22;1778;47.966;7.854;2022-07-04T01:52:47;20.30;99.90
3528;DHT22;1778;47.966;7.854;2022-07-04T01:53:49;20.30;99.90
3528;DHT22;1778;47.966;7.854;2022-07-04T01:54:50;20.30;99.90
3528;DHT22;1778;47.966;7.854;2022-07-04T01:55:52;20.30;99.90
3528;DHT22;1778;47.966;7.854;2022-07-04T01:56:54;20.30;99.90
3528;DHT22;1778;47.966;7.854;2022-07-04T01:57:55;20.30;99.90
3528;DHT22;1778;47.966;7.854;2022-07-04T01:58:57;20.30;99.90
3528;DHT22;1778;47.966;7.854;2022-07-04T02:00:00;20.30;99.90
3528;DHT22;1778;47.966;7.854;2022-07-04T02:01:21;20.30;99.90
3528;DHT22;1778;47.966;7.854;2022-07-04T02:02:32;20.30;99.90
3528;DHT22;1778;47.966;7.854;2022-07-04T02:03:33;20.30;99.90
3528;DHT22;1778;47.966;7.854;2022-07-04T02:04:36;20.30;99.90
3528;DHT22;1778;47.966;7.854;2022-07-04T02:05:38;20.30;99.90
3528;DHT22;1778;47.966;7.854;2022-07-04T02:06:40;20.30;99.90
3528;DHT22;1778;47.966;7.854;2022-07-04T02:07:41;20.30;99.90
3528;DHT22;1778;47.966;7.854;2022-07-04T02:08:43;20.30;99.90
3528;DHT22;1778;47.966;7.854;2022-07-04T02:10:04;20.30;99.90
3528;DHT22;1778;47.966;7.854;2022-07-04T02:11:05;20.30;99.90
3528;DHT22;1778;47.966;7.854;2022-07-04T02:12:07;20.30;99.90
3528;DHT22;1778;47.966;7.854;2022-07-04T02:13:28;20.30;99.90
3528;DHT22;1778;47.966;7.854;2022-07-04T02:14:31;20.20;99.90
3528;DHT22;1778;47.966;7.854;2022-07-04T02:15:38;20.20;99.90
3528;DHT22;1778;47.966;7.854;2022-07-04T02:16:39;20.10;99.90
3528;DHT22;1778;47.966;7.854;2022-07-04T02:17:41;20.10;99.90
3528;DHT22;1778;47.966;7.854;2022-07-04T02:18:43;20.10;99.90
3528;DHT22;1778;47.966;7.854;2022-07-04T02:19:45;20.10;99.90
3528;DHT22;1778;47.966;7.854;2022-07-04T02:20:47;20.20;99.90
3528;DHT22;1778;47.966;7.854;2022-07-04T02:21:48;20.20;99.90
3528;DHT22;1778;47.966;7.854;2022-07-04T02:22:50;20.20;99.90
3528;DHT22;1778;47.966;7.854;2022-07-04T02:23:52;20.30;99.90
3528;DHT22;1778;47.966;7.854;2022-07-04T02:24:54;20.30;99.90
3528;DHT22;1778;47.966;7.854;2022-07-04T02:25:55;20.30;99.90
3528;DHT22;1778;47.966;7.854;2022-07-04T02:26:57;20.30;99.90
3528;DHT22;1778;47.966;7.854;2022-07-04T02:27:59;20.30;99.90
3528;DHT22;1778;47.966;7.854;2022-07-04T02:29:01;20.30;99.90
3528;DHT22;1778;47.966;7.854;2022-07-04T02:30:03;20.30;99.90
3528;DHT22;1778;47.966;7.854;2022-07-04T02:31:05;20.20;99.90
3528;DHT22;1778;47.966;7.854;2022-07-04T02:32:07;20.20;99.90
3528;DHT22;1778;47.966;7.854;2022-07-04T02:33:09;20.30;99.90
3528;DHT22;1778;47.966;7.854;2022-07-04T02:34:10;20.30;99.90
3528;DHT22;1778;47.966;7.854;2022-07-04T02:35:12;20.20;99.90
3528;DHT22;1778;47.966;7.854;2022-07-04T02:36:13;20.20;99.90
3528;DHT22;1778;47.966;7.854;2022-07-04T02:37:15;20.20;99.90
3528;DHT22;1778;47.966;7.854;2022-07-04T02:38:17;20.20;99.90
3528;DHT22;1778;47.966;7.854;2022-07-04T02:39:18;20.20;99.90
3528;DHT22;1778;47.966;7.854;2022-07-04T02:40:20;20.20;99.90
3528;DHT22;1778;47.966;7.854;2022-07-04T02:41:22;20.10;99.90
3528;DHT22;1778;47.966;7.854;2022-07-04T02:42:24;20.10;99.90
3528;DHT22;1778;47.966;7.854;2022-07-04T02:43:25;20.10;99.90
3528;DHT22;1778;47.966;7.854;2022-07-04T02:44:27;20.10;99.90
3528;DHT22;1778;47.966;7.854;2022-07-04T02:45:29;20.10;99.90
3528;DHT22;1778;47.966;7.854;2022-07-04T02:46:31;20.10;99.90
3528;DHT22;1778;47.966;7.854;2022-07-04T02:47:35;20.10;99.90
3528;DHT22;1778;47.966;7.854;2022-07-04T02:48:37;20.00;99.90
3528;DHT22;1778;47.966;7.854;2022-07-04T02:49:38;20.00;99.90
3528;DHT22;1778;47.966;7.854;2022-07-04T02:50:40;20.00;99.90
3528;DHT22;1778;47.966;7.854;2022-07-04T02:51:42;19.90;99.90
3528;DHT22;1778;47.966;7.854;2022-07-04T02:52:44;19.90;99.90
3528;DHT22;1778;47.966;7.854;2022-07-04T02:53:46;19.90;99.90
3528;DHT22;1778;47.966;7.854;2022-07-04T02:54:48;19.90;99.90
3528;DHT22;1778;47.966;7.854;2022-07-04T02:55:50;19.90;99.90
3528;DHT22;1778;47.966;7.854;2022-07-04T02:56:52;19.90;99.90
3528;DHT22;1778;47.966;7.854;2022-07-04T02:57:53;19.90;99.90
3528;DHT22;1778;47.966;7.854;2022-07-04T02:58:55;19.90;99.90
3528;DHT22;1778;47.966;7.854;2022-07-04T02:59:57;19.80;99.90
3528;DHT22;1778;47.966;7.854;2022-07-04T03:00:59;19.70;99.90
3528;DHT22;1778;47.966;7.854;2022-07-04T03:02:01;19.80;99.90
3528;DHT22;1778;47.966;7.854;2022-07-04T03:03:03;19.70;99.90
3528;DHT22;1778;47.966;7.854;2022-07-04T03:04:04;19.70;99.90
3528;DHT22;1778;47.966;7.854;2022-07-04T03:05:06;19.70;99.90
3528;DHT22;1778;47.966;7.854;2022-07-04T03:06:09;19.80;99.90
3528;DHT22;1778;47.966;7.854;2022-07-04T03:07:10;19.70;99.90
3528;DHT22;1778;47.966;7.854;2022-07-04T03:08:12;19.70;99.90
3528;DHT22;1778;47.966;7.854;2022-07-04T03:09:14;19.60;99.90
3528;DHT22;1778;47.966;7.854;2022-07-04T03:10:15;19.60;99.90
3528;DHT22;1778;47.966;7.854;2022-07-04T03:11:17;19.60;99.90
3528;DHT22;1778;47.966;7.854;2022-07-04T03:12:18;19.60;99.90
3528;DHT22;1778;47.966;7.854;2022-07-04T03:13:20;19.50;99.90
3528;DHT22;1778;47.966;7.854;2022-07-04T03:14:23;19.50;99.90
3528;DHT22;1778;47.966;7.854;2022-07-04T03:15:24;19.50;99.90
3528;DHT22;1778;47.966;7.854;2022-07-04T03:16:26;19.60;99.90
3528;DHT22;1778;47.966;7.854;2022-07-04T03:17:28;19.50;99.90
3528;DHT22;1778;47.966;7.854;2022-07-04T03:18:31;19.50;99.90
3528;DHT22;1778;47.966;7.854;2022-07-04T03:19:33;19.50;99.90
3528;DHT22;1778;47.966;7.854;2022-07-04T03:20:35;19.60;99.90
3528;DHT22;1778;47.966;7.854;2022-07-04T03:21:36;19.60;99.90
3528;DHT22;1778;47.966;7.854;2022-07-04T03:22:38;19.60;99.90
3528;DHT22;1778;47.966;7.854;2022-07-04T03:23:39;19.50;99.90
3528;DHT22;1778;47.966;7.854;2022-07-04T03:24:41;19.50;99.90
3528;DHT22;1778;47.966;7.854;2022-07-04T03:25:43;19.50;99.90
3528;DHT22;1778;47.966;7.854;2022-07-04T03:26:45;19.50;99.90
3528;DHT22;1778;47.966;7.854;2022-07-04T03:27:46;19.50;99.90
3528;DHT22;1778;47.966;7.854;2022-07-04T03:28:48;19.40;99.90
3528;DHT22;1778;47.966;7.854;2022-07-04T03:29:50;19.40;99.90
3528;DHT22;1778;47.966;7.854;2022-07-04T03:30:51;19.40;99.90
3528;DHT22;1778;47.966;7.854;2022-07-04T03:31:53;19.40;99.90
3528;DHT22;1778;47.966;7.854;2022-07-04T03:32:55;19.40;99.90
3528;DHT22;1778;47.966;7.854;2022-07-04T03:33:56;19.40;99.90
3528;DHT22;1778;47.966;7.854;2022-07-04T03:34:58;19.50;99.90
3528;DHT22;1778;47.966;7.854;2022-07-04T03:35:59;19.40;99.90
3528;DHT22;1778;47.966;7.854;2022-07-04T03:37:01;19.50;99.90
3528;DHT22;1778;47.966;7.854;2022-07-04T03:38:02;19.40;99.90
3528;DHT22;1778;47.966;7.854;2022-07-04T03:39:04;19.50;99.90
3528;DHT22;1778;47.966;7.854;2022-07-04T03:40:06;19.40;99.90
3528;DHT22;1778;47.966;7.854;2022-07-04T03:41:08;19.40;99.90
3528;DHT22;1778;47.966;7.854;2022-07-04T03:42:10;19.30;99.90
3528;DHT22;1778;47.966;7.854;2022-07-04T03:43:11;19.30;99.90
3528;DHT22;1778;47.966;7.854;2022-07-04T03:44:13;19.30;99.90
3528;DHT22;1778;47.966;7.854;2022-07-04T03:45:15;19.20;99.90
3528;DHT22;1778;47.966;7.854;2022-07-04T03:46:17;19.20;99.90
3528;DHT22;1778;47.966;7.854;2022-07-04T03:47:18;19.20;99.90
3528;DHT22;1778;47.966;7.854;2022-07-04T03:48:20;19.10;99.90
3528;DHT22;1778;47.966;7.854;2022-07-04T03:49:21;19.10;99.90
3528;DHT22;1778;47.966;7.854;2022-07-04T03:50:23;19.20;99.90
3528;DHT22;1778;47.966;7.854;2022-07-04T03:51:25;19.20;99.90
3528;DHT22;1778;47.966;7.854;2022-07-04T03:52:27;19.20;99.90
3528;DHT22;1778;47.966;7.854;2022-07-04T03:53:28;19.30;99.90
3528;DHT22;1778;47.966;7.854;2022-07-04T03:54:30;19.30;99.90
3528;DHT22;1778;47.966;7.854;2022-07-04T03:55:31;19.30;99.90
3528;DHT22;1778;47.966;7.854;2022-07-04T03:56:33;19.30;99.90
3528;DHT22;1778;47.966;7.854;2022-07-04T03:57:34;19.20;99.90
3528;DHT22;1778;47.966;7.854;2022-07-04T03:58:36;19.20;99.90
3528;DHT22;1778;47.966;7.854;2022-07-04T03:59:38;19.20;99.90
3528;DHT22;1778;47.966;7.854;2022-07-04T04:00:39;19.10;99.90
3528;DHT22;1778;47.966;7.854;2022-07-04T04:01:43;19.20;99.90
3528;DHT22;1778;47.966;7.854;2022-07-04T04:02:44;19.20;99.90
3528;DHT22;1778;47.966;7.854;2022-07-04T04:03:48;19.10;99.90
3528;DHT22;1778;47.966;7.854;2022-07-04T04:05:09;19.20;99.90
3528;DHT22;1778;47.966;7.854;2022-07-04T04:06:29;19.20;99.90
3528;DHT22;1778;47.966;7.854;2022-07-04T04:07:31;19.20;99.90
3528;DHT22;1778;47.966;7.854;2022-07-04T04:08:32;19.20;99.90
3528;DHT22;1778;47.966;7.854;2022-07-04T04:09:34;19.20;99.90
3528;DHT22;1778;47.966;7.854;2022-07-04T04:10:35;19.20;99.90
3528;DHT22;1778;47.966;7.854;2022-07-04T04:11:37;19.20;99.90
3528;DHT22;1778;47.966;7.854;2022-07-04T04:12:38;19.30;99.90
3528;DHT22;1778;47.966;7.854;2022-07-04T04:13:40;19.30;99.90
3528;DHT22;1778;47.966;7.854;2022-07-04T04:14:42;19.30;99.90
3528;DHT22;1778;47.966;7.854;2022-07-04T04:15:44;19.40;99.90
3528;DHT22;1778;47.966;7.854;2022-07-04T04:16:45;19.40;99.90
3528;DHT22;1778;47.966;7.854;2022-07-04T04:17:47;19.30;99.90
3528;DHT22;1778;47.966;7.854;2022-07-04T04:18:49;19.30;99.90
3528;DHT22;1778;47.966;7.854;2022-07-04T04:19:51;19.30;99.90
3528;DHT22;1778;47.966;7.854;2022-07-04T04:20:52;19.30;99.90
3528;DHT22;1778;47.966;7.854;2022-07-04T04:21:54;19.30;99.90
3528;DHT22;1778;47.966;7.854;2022-07-04T04:22:56;19.30;99.90
3528;DHT22;1778;47.966;7.854;2022-07-04T04:23:57;19.20;99.90
3528;DHT22;1778;47.966;7.854;2022-07-04T04:24:59;19.30;99.90
3528;DHT22;1778;47.966;7.854;2022-07-04T04:26:00;19.40;99.90
3528;DHT22;1778;47.966;7.854;2022-07-04T04:27:02;19.30;99.90
3528;DHT22;1778;47.966;7.854;2022-07-04T04:28:04;19.30;99.90
3528;DHT22;1778;47.966;7.854;2022-07-04T04:29:05;19.40;99.90
3528;DHT22;1778;47.966;7.854;2022-07-04T04:30:07;19.40;99.90
3528;DHT22;1778;47.966;7.854;2022-07-04T04:31:09;19.30;99.90
3528;DHT22;1778;47.966;7.854;2022-07-04T04:32:11;19.30;99.90
3528;DHT22;1778;47.966;7.854;2022-07-04T04:33:12;19.30;99.90
3528;DHT22;1778;47.966;7.854;2022-07-04T04:34:14;19.30;99.90
3528;DHT22;1778;47.966;7.854;2022-07-04T04:35:16;19.30;99.90
3528;DHT22;1778;47.966;7.854;2022-07-04T04:36:17;19.30;99.90
3528;DHT22;1778;47.966;7.854;2022-07-04T04:37:19;19.30;99.90
3528;DHT22;1778;47.966;7.854;2022-07-04T04:38:21;19.30;99.90
3528;DHT22;1778;47.966;7.854;2022-07-04T04:39:22;19.30;99.90
3528;DHT22;1778;47.966;7.854;2022-07-04T04:40:23;19.30;99.90
3528;DHT22;1778;47.966;7.854;2022-07-04T04:41:25;19.30;99.90
3528;DHT22;1778;47.966;7.854;2022-07-04T04:42:27;19.30;99.90
3528;DHT22;1778;47.966;7.854;2022-07-04T04:43:29;19.40;99.90
3528;DHT22;1778;47.966;7.854;2022-07-04T04:44:31;19.40;99.90
3528;DHT22;1778;47.966;7.854;2022-07-04T04:45:32;19.40;99.90
3528;DHT22;1778;47.966;7.854;2022-07-04T04:46:34;19.40;99.90
3528;DHT22;1778;47.966;7.854;2022-07-04T04:47:36;19.40;99.90
3528;DHT22;1778;47.966;7.854;2022-07-04T04:48:38;19.40;99.90
3528;DHT22;1778;47.966;7.854;2022-07-04T04:49:39;19.40;99.90
3528;DHT22;1778;47.966;7.854;2022-07-04T04:50:41;19.40;99.90
3528;DHT22;1778;47.966;7.854;2022-07-04T04:51:43;19.40;99.90
3528;DHT22;1778;47.966;7.854;2022-07-04T04:52:45;19.40;99.90
3528;DHT22;1778;47.966;7.854;2022-07-04T04:53:46;19.40;99.90
3528;DHT22;1778;47.966;7.854;2022-07-04T04:54:48;19.40;99.90
3528;DHT22;1778;47.966;7.854;2022-07-04T04:55:49;19.40;99.90
3528;DHT22;1778;47.966;7.854;2022-07-04T04:56:52;19.30;99.90
3528;DHT22;1778;47.966;7.854;2022-07-04T04:57:53;19.30;99.90
3528;DHT22;1778;47.966;7.854;2022-07-04T04:58:55;19.40;99.90
3528;DHT22;1778;47.966;7.854;2022-07-04T04:59:57;19.40;99.90
3528;DHT22;1778;47.966;7.854;2022-07-04T05:00:58;19.50;99.90
3528;DHT22;1778;47.966;7.854;2022-07-04T05:02:20;19.50;99.90
3528;DHT22;1778;47.966;7.854;2022-07-04T05:03:21;19.50;99.90
3528;DHT22;1778;47.966;7.854;2022-07-04T05:04:23;19.40;99.90
3528;DHT22;1778;47.966;7.854;2022-07-04T05:05:25;19.40;99.90
3528;DHT22;1778;47.966;7.854;2022-07-04T05:06:27;19.50;99.90
3528;DHT22;1778;47.966;7.854;2022-07-04T05:07:29;19.50;99.90
3528;DHT22;1778;47.966;7.854;2022-07-04T05:08:30;19.50;99.90
3528;DHT22;1778;47.966;7.854;2022-07-04T05:09:32;19.50;99.90
3528;DHT22;1778;47.966;7.854;2022-07-04T05:10:34;19.50;99.90
3528;DHT22;1778;47.966;7.854;2022-07-04T05:11:36;19.50;99.90
3528;DHT22;1778;47.966;7.854;2022-07-04T05:12:37;19.50;99.90
3528;DHT22;1778;47.966;7.854;2022-07-04T05:13:40;19.50;99.90
3528;DHT22;1778;47.966;7.854;2022-07-04T05:14:42;19.50;99.90
3528;DHT22;1778;47.966;7.854;2022-07-04T05:15:44;19.50;99.90
3528;DHT22;1778;47.966;7.854;2022-07-04T05:16:46;19.50;99.90
3528;DHT22;1778;47.966;7.854;2022-07-04T05:17:47;19.50;99.90
3528;DHT22;1778;47.966;7.854;2022-07-04T05:18:49;19.50;99.90
3528;DHT22;1778;47.966;7.854;2022-07-04T05:19:51;19.60;99.90
3528;DHT22;1778;47.966;7.854;2022-07-04T05:20:52;19.60;99.90
3528;DHT22;1778;47.966;7.854;2022-07-04T05:21:54;19.60;99.90
3528;DHT22;1778;47.966;7.854;2022-07-04T05:22:55;19.70;99.90
3528;DHT22;1778;47.966;7.854;2022-07-04T05:23:57;19.70;99.90
3528;DHT22;1778;47.966;7.854;2022-07-04T05:24:58;19.70;99.90
3528;DHT22;1778;47.966;7.854;2022-07-04T05:26:01;19.70;99.90
3528;DHT22;1778;47.966;7.854;2022-07-04T05:27:03;19.70;99.90
3528;DHT22;1778;47.966;7.854;2022-07-04T05:28:05;19.70;99.90
3528;DHT22;1778;47.966;7.854;2022-07-04T05:29:07;19.80;99.90
3528;DHT22;1778;47.966;7.854;2022-07-04T05:30:09;19.80;99.90
3528;DHT22;1778;47.966;7.854;2022-07-04T05:31:11;19.80;99.90
3528;DHT22;1778;47.966;7.854;2022-07-04T05:32:13;19.80;99.90
3528;DHT22;1778;47.966;7.854;2022-07-04T05:33:15;19.90;99.90
3528;DHT22;1778;47.966;7.854;2022-07-04T05:34:17;19.90;99.90
3528;DHT22;1778;47.966;7.854;2022-07-04T05:35:20;19.90;99.90
3528;DHT22;1778;47.966;7.854;2022-07-04T05:36:23;20.00;99.90
3528;DHT22;1778;47.966;7.854;2022-07-04T05:37:29;20.10;99.90
3528;DHT22;1778;47.966;7.854;2022-07-04T05:38:31;20.10;99.90
3528;DHT22;1778;47.966;7.854;2022-07-04T05:39:33;20.20;99.90
3528;DHT22;1778;47.966;7.854;2022-07-04T05:40:34;20.20;99.90
3528;DHT22;1778;47.966;7.854;2022-07-04T05:41:36;20.20;99.90
3528;DHT22;1778;47.966;7.854;2022-07-04T05:42:37;20.20;99.90
3528;DHT22;1778;47.966;7.854;2022-07-04T05:43:39;20.20;99.90
3528;DHT22;1778;47.966;7.854;2022-07-04T05:44:40;20.20;99.90
3528;DHT22;1778;47.966;7.854;2022-07-04T05:45:43;20.20;99.90
3528;DHT22;1778;47.966;7.854;2022-07-04T05:46:44;20.20;99.90
3528;DHT22;1778;47.966;7.854;2022-07-04T05:47:46;20.20;99.90
3528;DHT22;1778;47.966;7.854;2022-07-04T05:48:47;20.30;99.90
3528;DHT22;1778;47.966;7.854;2022-07-04T05:49:49;20.30;99.90
3528;DHT22;1778;47.966;7.854;2022-07-04T05:50:51;20.30;99.90
3528;DHT22;1778;47.966;7.854;2022-07-04T05:51:52;20.30;99.90
3528;DHT22;1778;47.966;7.854;2022-07-04T05:52:54;20.30;99.90
3528;DHT22;1778;47.966;7.854;2022-07-04T05:53:56;20.30;99.90
3528;DHT22;1778;47.966;7.854;2022-07-04T05:54:58;20.30;99.90
3528;DHT22;1778;47.966;7.854;2022-07-04T05:55:59;20.30;99.90
3528;DHT22;1778;47.966;7.854;2022-07-04T05:57:01;20.30;99.90
3528;DHT22;1778;47.966;7.854;2022-07-04T05:58:02;20.40;99.90
3528;DHT22;1778;47.966;7.854;2022-07-04T05:59:04;20.40;99.90
3528;DHT22;1778;47.966;7.854;2022-07-04T06:00:06;20.40;99.90
3528;DHT22;1778;47.966;7.854;2022-07-04T06:01:10;20.40;99.90
3528;DHT22;1778;47.966;7.854;2022-07-04T06:02:12;20.50;99.90
3528;DHT22;1778;47.966;7.854;2022-07-04T06:03:14;20.50;99.90
3528;DHT22;1778;47.966;7.854;2022-07-04T06:04:16;20.50;99.90
3528;DHT22;1778;47.966;7.854;2022-07-04T06:05:19;20.60;99.90
3528;DHT22;1778;47.966;7.854;2022-07-04T06:06:20;20.60;99.90
3528;DHT22;1778;47.966;7.854;2022-07-04T06:07:22;20.60;99.90
3528;DHT22;1778;47.966;7.854;2022-07-04T06:08:24;20.60;99.90
3528;DHT22;1778;47.966;7.854;2022-07-04T06:09:25;20.70;99.90
3528;DHT22;1778;47.966;7.854;2022-07-04T06:10:28;20.70;99.90
3528;DHT22;1778;47.966;7.854;2022-07-04T06:11:30;20.70;99.90
3528;DHT22;1778;47.966;7.854;2022-07-04T06:12:31;20.80;99.90
3528;DHT22;1778;47.966;7.854;2022-07-04T06:13:34;20.80;99.90
3528;DHT22;1778;47.966;7.854;2022-07-04T06:14:35;20.80;99.90
3528;DHT22;1778;47.966;7.854;2022-07-04T06:15:37;20.90;99.90
3528;DHT22;1778;47.966;7.854;2022-07-04T06:16:39;20.90;99.90
3528;DHT22;1778;47.966;7.854;2022-07-04T06:17:41;20.90;99.90
3528;DHT22;1778;47.966;7.854;2022-07-04T06:18:43;20.90;99.90
3528;DHT22;1778;47.966;7.854;2022-07-04T06:19:45;20.90;99.90
3528;DHT22;1778;47.966;7.854;2022-07-04T06:20:46;21.00;99.90
3528;DHT22;1778;47.966;7.854;2022-07-04T06:21:48;21.00;99.90
3528;DHT22;1778;47.966;7.854;2022-07-04T06:22:50;21.00;99.90
3528;DHT22;1778;47.966;7.854;2022-07-04T06:23:53;21.00;99.90
3528;DHT22;1778;47.966;7.854;2022-07-04T06:24:54;21.10;99.90
3528;DHT22;1778;47.966;7.854;2022-07-04T06:25:56;21.20;99.90
3528;DHT22;1778;47.966;7.854;2022-07-04T06:26:57;21.20;99.90
3528;DHT22;1778;47.966;7.854;2022-07-04T06:27:59;21.30;99.90
3528;DHT22;1778;47.966;7.854;2022-07-04T06:29:00;21.40;99.90
3528;DHT22;1778;47.966;7.854;2022-07-04T06:30:03;21.40;99.90
3528;DHT22;1778;47.966;7.854;2022-07-04T06:31:05;21.50;99.90
3528;DHT22;1778;47.966;7.854;2022-07-04T06:32:07;21.60;99.90
3528;DHT22;1778;47.966;7.854;2022-07-04T06:33:08;21.60;99.90
3528;DHT22;1778;47.966;7.854;2022-07-04T06:34:10;21.70;99.90
3528;DHT22;1778;47.966;7.854;2022-07-04T06:35:31;21.80;99.90
3528;DHT22;1778;47.966;7.854;2022-07-04T06:36:47;21.80;99.90
3528;DHT22;1778;47.966;7.854;2022-07-04T06:37:49;21.90;99.90
3528;DHT22;1778;47.966;7.854;2022-07-04T06:38:52;21.90;99.90
3528;DHT22;1778;47.966;7.854;2022-07-04T06:39:54;21.90;99.90
3528;DHT22;1778;47.966;7.854;2022-07-04T06:40:59;21.80;99.90
3528;DHT22;1778;47.966;7.854;2022-07-04T06:42:01;21.80;99.90
3528;DHT22;1778;47.966;7.854;2022-07-04T06:43:04;21.80;99.90
3528;DHT22;1778;47.966;7.854;2022-07-04T06:44:06;21.60;99.90
3528;DHT22;1778;47.966;7.854;2022-07-04T06:45:13;21.80;99.90
3528;DHT22;1778;47.966;7.854;2022-07-04T06:46:15;21.70;99.90
3528;DHT22;1778;47.966;7.854;2022-07-04T06:47:16;21.70;99.90